createdAt,value
2018-05-04T00:02:24.808Z,4.90
2018-05-04T00:05:28.109Z,4.90
2018-05-04T00:08:31.424Z,4.80
2018-05-04T00:11:34.729Z,4.80
2018-05-04T00:14:38.066Z,4.70
2018-05-04T00:17:42.134Z,4.60
2018-05-04T00:20:45.457Z,4.60
2018-05-04T00:23:48.757Z,4.50
2018-05-04T00:26:52.085Z,4.50
2018-05-04T00:29:55.385Z,4.50
2018-05-04T00:32:58.726Z,4.50
2018-05-04T00:36:02.035Z,4.50
2018-05-04T00:39:05.364Z,4.40
2018-05-04T00:42:09.433Z,4.30
2018-05-04T00:45:12.773Z,4.30
2018-05-04T00:48:16.851Z,4.20
2018-05-04T00:51:20.186Z,4.20
2018-05-04T00:54:24.258Z,4.10
2018-05-04T00:57:27.600Z,4.10
2018-05-04T01:00:30.942Z,4.10
2018-05-04T01:03:34.270Z,4.00
2018-05-04T01:06:37.582Z,4.00
2018-05-04T01:09:41.657Z,3.90
2018-05-04T01:12:44.957Z,3.90
2018-05-04T01:15:48.285Z,3.90
2018-05-04T01:18:52.366Z,4.00
2018-05-04T01:21:55.697Z,4.00
2018-05-04T01:24:59.761Z,3.90
2018-05-04T01:28:03.097Z,3.90
2018-05-04T01:31:06.393Z,3.90
2018-05-04T01:34:09.726Z,3.80
2018-05-04T01:37:13.034Z,3.80
2018-05-04T01:40:16.357Z,3.60
2018-05-04T01:43:19.667Z,3.50
2018-05-04T01:46:22.996Z,3.50
2018-05-04T01:49:27.065Z,3.40
2018-05-04T01:52:30.385Z,3.40
2018-05-04T01:55:35.610Z,3.40
2018-05-04T01:58:38.950Z,3.40
2018-05-04T02:01:43.025Z,3.40
2018-05-04T02:04:46.335Z,3.30
2018-05-04T02:07:49.723Z,3.40
2018-05-04T02:10:53.748Z,3.30
2018-05-04T02:13:57.057Z,3.30
2018-05-04T02:17:00.390Z,3.30
2018-05-04T02:20:03.690Z,3.10
2018-05-04T02:23:07.030Z,3.10
2018-05-04T02:26:10.342Z,3.20
2018-05-04T02:29:14.960Z,3.20
2018-05-04T02:32:18.262Z,3.20
2018-05-04T02:35:21.598Z,3.20
2018-05-04T02:38:24.906Z,3.20
2018-05-04T02:41:28.259Z,3.20
2018-05-04T02:44:31.573Z,3.20
2018-05-04T02:47:34.885Z,3.20
2018-05-04T02:50:38.229Z,3.20
2018-05-04T02:53:41.529Z,3.20
2018-05-04T02:56:44.859Z,3.10
2018-05-04T02:59:48.149Z,3.20
2018-05-04T03:02:51.522Z,3.10
2018-05-04T03:05:54.788Z,3.10
2018-05-04T03:08:58.109Z,3.00
2018-05-04T03:12:01.415Z,3.00
2018-05-04T03:15:04.740Z,3.00
2018-05-04T03:18:08.058Z,3.00
2018-05-04T03:21:11.381Z,3.00
2018-05-04T03:24:15.514Z,3.00
2018-05-04T03:27:18.900Z,3.00
2018-05-04T03:30:22.197Z,3.00
2018-05-04T03:33:25.517Z,3.00
2018-05-04T03:36:29.585Z,2.90
2018-05-04T03:39:32.947Z,2.90
2018-05-04T03:42:36.294Z,2.80
2018-05-04T03:45:39.605Z,2.80
2018-05-04T03:48:42.945Z,2.80
2018-05-04T03:51:46.272Z,2.70
2018-05-04T03:54:49.591Z,2.70
2018-05-04T03:58:10.334Z,2.70
2018-05-04T04:01:31.139Z,2.60
2018-05-04T04:04:34.463Z,2.70
2018-05-04T04:07:37.774Z,2.70
2018-05-04T04:10:41.110Z,2.60
2018-05-04T04:13:44.434Z,2.70
2018-05-04T04:16:47.795Z,2.70
2018-05-04T04:19:51.115Z,2.70
2018-05-04T04:22:54.433Z,2.70
2018-05-04T04:25:57.766Z,2.80
2018-05-04T04:29:01.075Z,2.80
2018-05-04T04:32:04.418Z,2.90
2018-05-04T04:35:07.727Z,3.00
2018-05-04T04:38:11.368Z,3.10
2018-05-04T04:41:14.702Z,3.20
2018-05-04T04:44:18.042Z,3.30
2018-05-04T04:47:21.362Z,3.40
2018-05-04T04:50:24.704Z,3.50
2018-05-04T04:53:28.027Z,3.50
2018-05-04T04:56:31.351Z,3.70
2018-05-04T04:59:34.674Z,3.80
2018-05-04T05:02:38.014Z,3.90
2018-05-04T05:05:41.314Z,3.90
2018-05-04T05:08:44.641Z,4.00
2018-05-04T05:11:47.967Z,4.10
2018-05-04T05:14:52.062Z,4.30
2018-05-04T05:17:55.361Z,4.20
2018-05-04T05:20:59.473Z,4.40
2018-05-04T05:24:02.801Z,4.50
2018-05-04T05:27:06.141Z,4.60
2018-05-04T05:30:09.446Z,4.70
2018-05-04T05:33:12.781Z,4.80
2018-05-04T05:36:16.103Z,4.90
2018-05-04T05:39:19.451Z,5.10
2018-05-04T05:42:22.862Z,5.30
2018-05-04T05:45:26.145Z,5.40
2018-05-04T05:48:29.457Z,5.60
2018-05-04T05:51:33.538Z,6.00
2018-05-04T05:54:36.923Z,6.00
2018-05-04T05:57:40.199Z,6.20
2018-05-04T06:00:43.514Z,6.30
2018-05-04T06:03:46.832Z,6.30
2018-05-04T06:06:50.144Z,6.50
2018-05-04T06:09:53.457Z,6.50
2018-05-04T06:12:57.581Z,6.70
2018-05-04T06:16:00.910Z,6.70
2018-05-04T06:19:04.249Z,6.80
2018-05-04T06:22:07.549Z,7.00
2018-05-04T06:25:10.967Z,7.10
2018-05-04T06:28:14.189Z,7.20
2018-05-04T06:31:17.518Z,7.40
2018-05-04T06:34:21.837Z,7.50
2018-05-04T06:37:25.166Z,7.60
2018-05-04T06:40:29.237Z,7.80
2018-05-04T06:43:32.557Z,7.90
2018-05-04T06:46:35.853Z,8.00
2018-05-04T06:49:39.186Z,8.10
2018-05-04T06:52:42.492Z,8.20
2018-05-04T06:55:45.807Z,8.30
2018-05-04T06:58:49.104Z,8.30
2018-05-04T07:01:52.416Z,8.30
2018-05-04T07:04:55.717Z,8.30
2018-05-04T07:07:59.046Z,8.40
2018-05-04T07:11:03.125Z,8.40
2018-05-04T07:14:06.452Z,8.40
2018-05-04T07:17:09.748Z,8.50
2018-05-04T07:20:13.060Z,8.50
2018-05-04T07:23:17.138Z,8.60
2018-05-04T07:26:20.473Z,8.60
2018-05-04T07:29:23.774Z,8.60
2018-05-04T07:32:27.085Z,8.70
2018-05-04T07:35:30.400Z,8.80
2018-05-04T07:38:33.698Z,9.00
2018-05-04T07:41:37.023Z,9.10
2018-05-04T07:44:40.341Z,9.30
2018-05-04T07:47:44.432Z,9.60
2018-05-04T07:50:47.737Z,9.60
2018-05-04T07:53:51.065Z,9.80
2018-05-04T07:56:54.382Z,10.00
2018-05-04T07:59:57.711Z,10.20
2018-05-04T08:03:01.046Z,10.30
2018-05-04T08:06:04.357Z,10.30
2018-05-04T08:09:07.665Z,10.40
2018-05-04T08:12:11.005Z,10.40
2018-05-04T08:15:14.318Z,10.40
2018-05-04T08:18:17.649Z,10.50
2018-05-04T08:21:20.965Z,10.50
2018-05-04T08:24:24.295Z,10.70
2018-05-04T08:27:27.640Z,10.90
2018-05-04T08:30:30.961Z,11.10
2018-05-04T08:33:34.287Z,11.40
2018-05-04T08:36:37.634Z,11.40
2018-05-04T08:39:40.950Z,11.60
2018-05-04T08:42:44.308Z,11.70
2018-05-04T08:45:47.623Z,11.80
2018-05-04T08:48:50.953Z,11.80
2018-05-04T08:51:54.274Z,11.90
2018-05-04T08:54:58.374Z,12.10
2018-05-04T08:58:01.701Z,12.10
2018-05-04T09:01:05.806Z,12.30
2018-05-04T09:04:09.920Z,12.40
2018-05-04T09:07:14.022Z,12.40
2018-05-04T09:10:17.336Z,12.40
2018-05-04T09:13:21.427Z,12.50
2018-05-04T09:16:24.783Z,12.50
2018-05-04T09:19:28.105Z,12.60
2018-05-04T09:22:31.458Z,12.70
2018-05-04T09:25:34.777Z,12.80
2018-05-04T09:28:38.097Z,12.70
2018-05-04T09:31:41.409Z,12.70
2018-05-04T09:34:44.740Z,12.70
2018-05-04T09:37:48.817Z,13.10
2018-05-04T09:40:52.171Z,13.10
2018-05-04T09:43:55.491Z,13.10
2018-05-04T09:46:58.821Z,13.10
2018-05-04T09:50:02.130Z,13.00
2018-05-04T09:53:06.223Z,13.10
2018-05-04T09:56:09.620Z,13.10
2018-05-04T09:59:13.658Z,13.30
2018-05-04T10:02:17.729Z,13.40
2018-05-04T10:05:21.063Z,13.40
2018-05-04T10:08:25.938Z,13.40
2018-05-04T10:11:29.258Z,13.40
2018-05-04T10:14:32.582Z,13.50
2018-05-04T10:17:35.886Z,13.50
2018-05-04T10:20:39.989Z,13.20
2018-05-04T10:23:43.317Z,13.20
2018-05-04T10:26:46.660Z,13.10
2018-05-04T10:29:49.972Z,13.20
2018-05-04T10:32:53.350Z,13.30
2018-05-04T10:35:56.656Z,13.40
2018-05-04T10:39:00.085Z,13.50
2018-05-04T10:42:03.289Z,13.60
2018-05-04T10:45:07.467Z,13.40
2018-05-04T10:48:11.472Z,13.50
2018-05-04T10:51:14.818Z,13.50
2018-05-04T10:54:18.896Z,13.60
2018-05-04T10:57:22.213Z,13.60
2018-05-04T11:00:26.192Z,13.60
2018-05-04T11:03:29.525Z,13.70
2018-05-04T11:06:32.829Z,13.80
2018-05-04T11:09:36.910Z,14.00
2018-05-04T11:12:40.209Z,14.00
2018-05-04T11:15:43.526Z,14.10
2018-05-04T11:18:46.826Z,14.10
2018-05-04T11:21:50.921Z,14.10
2018-05-04T11:24:54.225Z,14.10
2018-05-04T11:27:57.636Z,14.00
2018-05-04T11:31:00.932Z,13.90
2018-05-04T11:34:04.254Z,14.00
2018-05-04T11:37:07.561Z,14.10
2018-05-04T11:40:10.893Z,14.20
2018-05-04T11:43:14.198Z,14.30
2018-05-04T11:46:17.525Z,14.20
2018-05-04T11:49:22.571Z,14.20
2018-05-04T11:52:26.975Z,14.10
2018-05-04T11:55:31.069Z,14.20
2018-05-04T11:58:34.402Z,14.20
2018-05-04T12:01:37.816Z,14.20
2018-05-04T12:04:41.186Z,14.30
2018-05-04T12:07:45.274Z,14.50
2018-05-04T12:10:48.668Z,14.50
2018-05-04T12:13:51.955Z,14.80
2018-05-04T12:16:55.301Z,14.60
2018-05-04T12:19:59.398Z,14.70
2018-05-04T12:23:02.718Z,14.70
2018-05-04T12:26:06.022Z,14.70
2018-05-04T12:29:09.445Z,14.60
2018-05-04T12:32:12.752Z,14.40
2018-05-04T12:35:16.076Z,14.40
2018-05-04T12:38:19.379Z,14.50
2018-05-04T12:41:23.466Z,14.60
2018-05-04T12:44:26.766Z,14.60
2018-05-04T12:47:30.077Z,14.80
2018-05-04T12:50:33.372Z,14.90
2018-05-04T12:53:36.784Z,14.90
2018-05-04T12:56:40.031Z,14.90
2018-05-04T12:59:44.104Z,14.90
2018-05-04T13:02:48.193Z,14.70
2018-05-04T13:05:51.493Z,14.80
2018-05-04T13:08:54.806Z,14.90
2018-05-04T13:11:58.878Z,15.10
2018-05-04T13:15:02.198Z,15.10
2018-05-04T13:18:05.506Z,15.10
2018-05-04T13:21:08.834Z,15.10
2018-05-04T13:24:12.145Z,15.10
2018-05-04T13:27:15.482Z,15.20
2018-05-04T13:30:18.785Z,15.20
2018-05-04T13:33:22.127Z,15.10
2018-05-04T13:36:25.427Z,15.00
2018-05-04T13:39:28.757Z,15.10
2018-05-04T13:42:32.056Z,15.20
2018-05-04T13:45:35.394Z,15.30
2018-05-04T13:48:39.874Z,15.50
2018-05-04T13:51:42.797Z,15.40
2018-05-04T13:54:46.880Z,15.30
2018-05-04T13:57:50.278Z,15.30
2018-05-04T14:00:53.525Z,15.40
2018-05-04T14:03:56.882Z,15.50
2018-05-04T14:07:00.182Z,15.60
2018-05-04T14:10:03.538Z,15.70
2018-05-04T14:13:06.852Z,15.70
2018-05-04T14:16:10.219Z,15.80
2018-05-04T14:19:13.549Z,15.90
2018-05-04T14:22:16.868Z,15.60
2018-05-04T14:25:20.203Z,15.40
2018-05-04T14:28:23.513Z,15.40
2018-05-04T14:31:26.886Z,15.50
2018-05-04T14:34:30.962Z,15.70
2018-05-04T14:37:34.303Z,15.60
2018-05-04T14:40:37.641Z,15.70
2018-05-04T14:43:40.954Z,15.90
2018-05-04T14:46:44.287Z,15.80
2018-05-04T14:49:47.600Z,15.90
2018-05-04T14:52:50.917Z,16.10
2018-05-04T14:55:54.254Z,16.30
2018-05-04T14:58:57.553Z,16.10
2018-05-04T15:02:00.896Z,16.20
2018-05-04T15:05:04.202Z,16.10
2018-05-04T15:08:07.543Z,16.20
2018-05-04T15:11:11.622Z,16.20
2018-05-04T15:14:14.977Z,16.10
2018-05-04T15:17:18.361Z,16.40
2018-05-04T15:20:21.619Z,16.50
2018-05-04T15:23:24.921Z,16.80
2018-05-04T15:26:28.258Z,16.80
2018-05-04T15:29:32.338Z,16.90
2018-05-04T15:32:35.667Z,16.80
2018-05-04T15:35:39.729Z,17.10
2018-05-04T15:38:43.058Z,17.20
2018-05-04T15:41:46.360Z,17.40
2018-05-04T15:44:49.679Z,17.50
2018-05-04T15:47:52.996Z,17.50
2018-05-04T15:51:01.910Z,17.70
2018-05-04T15:54:05.213Z,18.00
2018-05-04T15:57:08.530Z,18.40
2018-05-04T16:00:11.852Z,18.60
2018-05-04T16:03:15.161Z,18.70
2018-05-04T16:06:18.468Z,18.30
2018-05-04T16:09:21.766Z,18.40
2018-05-04T16:12:25.896Z,18.20
2018-05-04T16:15:29.965Z,18.10
2018-05-04T16:18:33.300Z,18.10
2018-05-04T16:21:37.383Z,17.60
2018-05-04T16:24:40.704Z,17.50
2018-05-04T16:27:44.009Z,17.00
2018-05-04T16:30:47.343Z,16.70
2018-05-04T16:33:50.645Z,16.10
2018-05-04T16:36:53.946Z,15.80
2018-05-04T16:39:57.249Z,15.70
2018-05-04T16:43:00.593Z,15.50
2018-05-04T16:46:04.661Z,15.30
2018-05-04T16:52:41.577Z,15.20
2018-05-04T16:55:44.917Z,15.20
2018-05-04T16:58:48.226Z,15.10
2018-05-04T17:01:51.651Z,15.00
2018-05-04T17:04:54.957Z,14.90
2018-05-04T17:07:58.268Z,14.80
2018-05-04T17:11:01.577Z,14.70
2018-05-04T17:14:05.677Z,14.70
2018-05-04T17:17:08.981Z,14.70
2018-05-04T17:20:12.297Z,14.70
2018-05-04T17:23:16.373Z,14.60
2018-05-04T17:26:19.704Z,14.60
2018-05-04T17:29:23.774Z,14.50
2018-05-04T17:32:27.125Z,14.50
2018-05-04T17:35:30.430Z,14.50
2018-05-04T17:38:33.757Z,14.40
2018-05-04T17:41:37.052Z,14.40
2018-05-04T17:44:40.369Z,14.30
2018-05-04T17:47:43.668Z,14.10
2018-05-04T17:50:46.999Z,14.00
2018-05-04T17:53:51.077Z,13.90
2018-05-04T17:56:54.403Z,13.80
2018-05-04T17:59:58.521Z,13.70
2018-05-04T18:03:02.666Z,13.50
2018-05-04T18:06:05.951Z,13.50
2018-05-04T18:09:09.260Z,13.40
2018-05-04T18:12:12.634Z,13.40
2018-05-04T18:15:16.709Z,13.10
2018-05-04T18:18:20.024Z,13.10
2018-05-04T18:21:24.098Z,13.00
2018-05-04T18:24:27.424Z,13.00
2018-05-04T18:27:30.724Z,12.90
2018-05-04T18:30:34.056Z,12.80
2018-05-04T18:33:37.360Z,12.70
2018-05-04T18:36:40.672Z,12.70
2018-05-04T18:39:43.993Z,12.60
2018-05-04T18:42:47.301Z,12.50
2018-05-04T18:45:50.733Z,12.50
2018-05-04T18:48:54.805Z,12.30
2018-05-04T18:51:58.134Z,12.30
2018-05-04T18:55:02.202Z,12.10
2018-05-04T18:58:05.537Z,12.00
2018-05-04T19:01:09.604Z,12.00
2018-05-04T19:04:12.917Z,11.90
2018-05-04T19:07:16.985Z,11.80
2018-05-04T19:10:20.314Z,11.80
2018-05-04T19:13:23.617Z,11.80
2018-05-04T19:16:26.937Z,11.70
2018-05-04T19:19:30.239Z,11.60
2018-05-04T19:22:33.554Z,11.50
2018-05-04T19:25:37.617Z,11.40
2018-05-04T19:28:40.938Z,11.30
2018-05-04T19:31:44.241Z,11.30
2018-05-04T19:34:47.580Z,11.30
2018-05-04T19:37:50.888Z,11.20
2018-05-04T19:40:54.218Z,11.20
2018-05-04T19:43:57.525Z,11.10
2018-05-04T19:47:00.878Z,11.00
2018-05-04T19:50:04.200Z,11.00
2018-05-04T19:53:08.383Z,10.80
2018-05-04T19:56:11.689Z,10.80
2018-05-04T19:59:15.005Z,10.70
2018-05-04T20:02:18.310Z,10.70
2018-05-04T20:05:21.625Z,10.60
2018-05-04T20:08:24.949Z,10.50
2018-05-04T20:11:29.017Z,10.40
2018-05-04T20:14:32.352Z,10.40
2018-05-04T20:17:36.424Z,10.20
2018-05-04T20:20:39.750Z,10.20
2018-05-04T20:23:43.059Z,10.20
2018-05-04T20:26:46.405Z,10.20
2018-05-04T20:29:49.704Z,10.10
2018-05-04T20:32:53.033Z,10.20
2018-05-04T20:35:56.343Z,10.10
2018-05-04T20:39:00.424Z,10.00
2018-05-04T20:42:03.718Z,10.00
2018-05-04T20:45:07.037Z,10.00
2018-05-04T20:48:10.434Z,10.00
2018-05-04T20:51:13.758Z,9.90
2018-05-04T20:54:17.053Z,9.80
2018-05-04T20:57:21.128Z,9.70
2018-05-04T21:00:24.425Z,9.70
2018-05-04T21:03:27.743Z,9.60
2018-05-04T21:06:31.802Z,9.60
2018-05-04T21:09:35.122Z,9.60
2018-05-04T21:12:38.450Z,9.60
2018-05-04T21:15:42.532Z,9.50
2018-05-04T21:18:45.838Z,9.40
2018-05-04T21:21:49.152Z,9.40
2018-05-04T21:24:52.449Z,9.40
2018-05-04T21:27:55.754Z,9.40
2018-05-04T21:30:59.813Z,9.20
2018-05-04T21:34:03.137Z,9.30
2018-05-04T21:37:06.438Z,9.20
2018-05-04T21:40:09.746Z,9.20
2018-05-04T21:43:13.042Z,9.10
2018-05-04T21:46:16.362Z,9.10
2018-05-04T21:49:20.430Z,9.00
2018-05-04T21:52:23.740Z,9.00
2018-05-04T21:55:27.037Z,9.00
2018-05-04T21:58:30.366Z,9.00
2018-05-04T22:01:33.667Z,9.00
2018-05-04T22:04:37.003Z,8.90
2018-05-04T22:07:40.317Z,8.90
2018-05-04T22:10:43.613Z,8.80
2018-05-04T22:13:46.924Z,8.70
2018-05-04T22:16:50.216Z,8.70
2018-05-04T22:19:53.533Z,8.60
2018-05-04T22:22:57.594Z,8.50
2018-05-04T22:26:01.685Z,8.50
2018-05-04T22:29:04.977Z,8.40
2018-05-04T22:32:08.285Z,8.40
2018-05-04T22:35:11.578Z,8.30
2018-05-04T22:38:14.901Z,8.20
2018-05-04T22:41:18.206Z,8.20
2018-05-04T22:44:22.302Z,8.00
2018-05-04T22:47:25.601Z,8.00
2018-05-04T22:50:28.924Z,7.90
2018-05-04T22:53:32.217Z,7.90
2018-05-04T22:56:35.625Z,7.80
2018-05-04T22:59:38.861Z,7.70
2018-05-04T23:02:42.174Z,7.60
2018-05-04T23:05:45.464Z,7.60
2018-05-04T23:08:48.768Z,7.50
2018-05-04T23:11:52.069Z,7.50
2018-05-04T23:14:55.369Z,7.50
2018-05-04T23:17:58.681Z,7.40
2018-05-04T23:21:02.018Z,7.50
2018-05-04T23:24:05.317Z,7.40
2018-05-04T23:27:09.373Z,7.40
2018-05-04T23:30:12.696Z,7.30
2018-05-04T23:33:15.984Z,7.30
2018-05-04T23:36:19.309Z,7.30
2018-05-04T23:39:23.360Z,7.20
2018-05-04T23:42:26.673Z,7.20
2018-05-04T23:45:29.964Z,7.20
2018-05-04T23:48:33.279Z,7.20
2018-05-04T23:51:36.568Z,7.20
2018-05-04T23:54:39.880Z,7.10
2018-05-04T23:57:43.172Z,7.10
